Thursday, October 19, 2017, 7:08 AM EDT
Back to Local

KCDW, Caldwell Essex County Airport

Location: Fairfield, NJ, United States Lat: 40.883
Local Time: 7:08 AM EDT (11:08 GMT) Lon: -74.283
Time Zone: US/Eastern Elev: 173 ft

Show me the last for .
Show Coded

Time T Td Feel RH Dir Speed Gust Alt SLP Vis Weather Sky Remarks
2017-10-19 06:53 44 44 - 100 - Calm - 30.26 30.27 10 CLR None
2017-10-19 05:53 45 45 - 100 - Calm - 30.27 30.28 10 CLR None
2017-10-19 04:53 45 45 - 100 - Calm - 30.26 30.28 10 CLR None
2017-10-19 03:53 46 46 - 100 - Calm - 30.26 30.28 10 CLR None
2017-10-19 02:53 47 47 - 100 - Calm - 30.27 30.28 10 CLR None
2017-10-19 01:53 48 48 - 100 - Calm - 30.28 30.29 10 CLR 6-hr Min Temp (2am): 48.0°F
6-hr Max Temp (2am): 59.0°F
2017-10-19 00:53 49 49 - 100 - Calm - 30.28 30.29 10 CLR 24-hr Min Temp (1am): 41.0°F
24-hr Max Temp (1am): 73.9°F
2017-10-18 23:53 50 49 - 96 - Calm - 30.29 30.30 10 CLR None
2017-10-18 22:53 51 50 - 96 - Calm - 30.29 30.31 10 CLR None
2017-10-18 21:53 53 50 - 89 - Calm - 30.29 30.31 10 CLR None
2017-10-18 20:53 56 51 - 83 - Calm - 30.29 30.30 10 CLR None
2017-10-18 19:53 58 50 - 74 - Calm - 30.28 30.29 10 CLR 6-hr Min Temp (8pm): 57.9°F
6-hr Max Temp (8pm): 73.9°F
2017-10-18 18:53 63 49 - 60 - Calm - 30.27 30.28 10 CLR None
2017-10-18 17:53 69 49 - 48 220° 5 - 30.25 30.27 10 CLR None
2017-10-18 16:53 72 48 76 42 Variable 6 - 30.25 30.26 10 CLR None
2017-10-18 15:53 73 48 76 41 280° 7 - 30.25 30.27 10 CLR None
2017-10-18 14:53 73 47 - 39 290° 7 - 30.26 30.28 10 CLR None
2017-10-18 13:53 71 49 76 45 200° 3 - 30.28 30.29 10 CLR 6-hr Min Temp (2pm): 44.1°F
6-hr Max Temp (2pm): 72.0°F
2017-10-18 12:53 68 48 - 48 160° 5 - 30.31 30.32 10 CLR None
2017-10-18 11:53 64 46 - 51 - Calm - 30.33 30.34 10 CLR None
2017-10-18 10:53 59 44 - 57 - Calm - 30.33 30.34 10 CLR None
2017-10-18 09:53 55 42 - 61 290° 3 - 30.33 30.35 10 CLR None
2017-10-18 08:53 49 40 - 70 - Calm - 30.34 30.35 10 CLR None
2017-10-18 07:53 44 39 - 82 - Calm - 30.32 30.34 10 CLR 6-hr Min Temp (8am): 41.0°F
6-hr Max Temp (8am): 44.1°F

Support USWX by starting your Amazon purchase here.